MyTimes logo

TIMES

Webb Imagery

03/02/2007
Channel Challenge
550m Swim / 2.0km Run

(Click on competitor name to view personalised results)

Name
Race #
Category
Time
(h:mm:ss)
Avg Speed
km/hr
OAll
Place
Cat
Place
HUNTER Hamish#198Senior Male0:11:46 13 11
CAMPBELL Brad#183Senior Male0:12:15 12.5 22
SMITH Ryan#704Junior Male0:12:18 12.4 31
FORD Brenton#108Senior Male0:12:35 12.2 43
ROWE Mark#213Senior Male0:12:37 12.1 54
ARMSTRONG Greame#770Male 50+0:12:51 11.9 61
SHEPPARD Lachlan#707Junior Male0:12:59 11.8 72
NORRIE Daniel#714Junior Male0:13:02 11.7 83
EVANS Brad#118Senior Male0:13:21 11.5 95
KEAYS Matthew#204Senior Male0:13:24 11.4 106
PHILLIPS Tyler#702Junior Male0:13:26 11.4 114
ROCK Anthony#199Senior Male0:13:30 11.3 127
LINEHAN Hannah#324Junior Female0:13:37 11.2 131
RAINEY Peter#73540-49 Male0:13:37 11.2 141
WALKER Justin#229Senior Male0:13:40 11.2 158
GUTERRES Shota#171Senior Male0:13:46 11.1 169
MURPHY Kate#352Senior Female0:13:54 11 171
SORATI Ty#157Senior Male0:13:57 11 1810
CROFT Greg#85040-49 Male0:13:57 11 192
FRANKISH Monty#82Senior Male0:14:00 10.9 2011
CROWE Sarah#323Junior Female0:14:04 10.9 212
KERR Lewis#703Junior Male0:14:05 10.9 225
MORISON Benny#135Senior Male0:14:06 10.9 2312
HANLEY Philip#771Male 50+0:14:06 10.9 242
YUSKO Daniel#200Senior Male0:14:12 10.8 2513
ROLLAND Thierry#79940-49 Male0:14:12 10.8 263
WILLIAMS Jared#221Senior Male0:14:13 10.8 2714
BUTT Chloe#330Junior Female0:14:18 10.7 283
PLANT Luke#800Junior Male0:14:22 10.6 296
STEWART Alastair#818Junior Male0:14:28 10.6 307
AITKEN Harry#807Junior Male0:14:29 10.6 318
LISTER Kate#448Senior Female0:14:30 10.6 322
TILLEY Justin#180Senior Male0:14:30 10.6 3315
GUILLE Tim#57Senior Male0:14:33 10.5 3416
MOUNSEY Mark#75240-49 Male0:14:37 10.5 354
CORBETT Jim#168Senior Male0:14:39 10.4 3617
BARNES Trevor#31Senior Male0:14:44 10.4 3718
ARMSTRONG Emma#326Junior Female0:14:44 10.4 384
FLEISNER Rob#72340-49 Male0:14:44 10.4 395
JONES Ian#232Senior Male0:14:48 10.3 4019
CARTER Lachlan#26Senior Male0:14:48 10.3 4120
DALLINGER Chris#247Senior Male0:14:49 10.3 4221
GOWAN Mike#235Senior Male0:14:51 10.3 4322
DURAND Anthony#86340-49 Male0:14:51 10.3 446
BLAKE Darren#140Senior Male0:14:52 10.3 4523
HUTCHINSON Warwick#105Senior Male0:14:54 10.3 4624
YUSKO Bill#871Male 50+0:14:59 10.2 473
EUSTICE Stuart#216Senior Male0:15:04 10.2 4825
CAPLE Alex#63Senior Male0:15:07 10.1 4926
KINGSLEY Caitlin#467Senior Female0:15:10 10.1 503
WILSON Edward#102Senior Male0:15:12 10.1 5127
MC NAMARA Dustin#864Junior Male0:15:12 10.1 529
GOSPER Dean#75340-49 Male0:15:12 10.1 537
DUNNE Chris#126Senior Male0:15:13 10.1 5428
CLINTON Bradley#176Senior Male0:15:14 10 5529
NEWTON Noodles#81640-49 Male0:15:16 10 568
VITRITTI Karina#439Senior Female0:15:19 10 574
FERGUSON Zoe#369Senior Female0:15:23 9.9 585
TYLER Jonathan#95Senior Male0:15:24 9.9 5930
SOMMERVILLE Barny#153Senior Male0:15:25 9.9 6031
KENT Josh#173Senior Male0:15:27 9.9 6132
MATHEWS Jack#90Senior Male0:15:27 9.9 6233
DAHL Joakim#115Senior Male0:15:28 9.9 6334
CHUA Ssu Yuan#359Senior Female0:15:29 9.9 646
CSAKVARI Jarrod#174Senior Male0:15:31 9.9 6535
HEWETT Noel#80940-49 Male0:15:32 9.8 669
KONIG Paul#46Senior Male0:15:34 9.8 6736
HOMER Ivan#72040-49 Male0:15:34 9.8 6810
GYLES Hugh#186Senior Male0:15:39 9.8 6937
CORNISH Scott#58Senior Male0:15:39 9.8 7038
PORTER Troy#163Senior Female0:15:42 9.7 717
BORG Dan#17Senior Male0:15:45 9.7 7239
SELLER Nicholas#705Junior Male0:15:45 9.7 7310
CHISHOLM Andy#23Senior Male0:15:47 9.7 7440
MC GRATH Patrick#141Senior Male0:15:48 9.7 7541
THOMAS Luke#29Senior Male0:15:48 9.7 7642
WINSER Meghan#431Junior Female0:15:48 9.7 775
FERGUSON Andrew#47Senior Male0:15:49 9.7 7843
COWELL Darren#74940-49 Male0:15:49 9.7 7911
JOHNSON Shannon#182Senior Male0:15:51 9.7 8044
WILLIAMSON David#170Senior Male0:15:52 9.6 8145
STOCK Adam#804Junior Male0:15:52 9.6 8211
SPEAKMAN David#219Senior Male0:15:53 9.6 8346
RIELLY Debbie#396Senior Female0:15:54 9.6 848
CROWE Susie#451Junior Female0:15:55 9.6 856
LUKAV Brae#33Senior Male0:15:56 9.6 8647
CHISTISON Dave#145Senior Male0:15:58 9.6 8748
HARRIS Mark#74640-49 Male0:15:58 9.6 8812
RULE Bryan#85540-49 Male0:16:00 9.6 8913
DELARUE Travis#188Senior Male0:16:01 9.6 9049
JOLLEY Ben#218Senior Male0:16:02 9.5 9150
MARTIN Brian#83140-49 Male0:16:02 9.5 9214
TOLSTRUP Simon#21Senior Male0:16:03 9.5 9351
O'CONNELL Sarah#344Senior Female0:16:03 9.5 949
HARRISON Hamish#811Junior Male0:16:03 9.5 9512
PALMER Daniel#86Senior Male0:16:05 9.5 9652
GROENEVELD Sander#241Senior Male0:16:05 9.5 9753
JUDD Alex#711Junior Male0:16:06 9.5 9813
KING Adam#121Senior Male0:16:08 9.5 9954
REYNOLDS Darren#71740-49 Male0:16:09 9.5 10015
EISEN Nat#158Senior Male0:16:10 9.5 10155
WILKINS Shaun#245Senior Male0:16:10 9.5 10256
DAVIE Krystal#473Junior Female0:16:10 9.5 1037
JUDD Gary#74540-49 Male0:16:10 9.5 10416
COLOMB Kristie#459Senior Female0:16:11 9.5 10510
WILKINS Darren#246Senior Male0:16:12 9.4 10657
GREGORY Sam#159Senior Male0:16:13 9.4 10758
REAY Andrew#59Senior Male0:16:14 9.4 10859
ZACHARAH Aidan#244Senior Male0:16:14 9.4 10960
DARK Angela#394Senior Female0:16:15 9.4 11011
BEOVICH Mark#65Senior Male0:16:17 9.4 11161
LEVERSHA David#759Male 50+0:16:20 9.4 1124
FORTINGTON Andrea#430Senior Female0:16:21 9.4 11312
NOORDHOFF Andrew#187Senior Male0:16:22 9.3 11462
TOMICH Lane#197Senior Male0:16:24 9.3 11563
RYAN Daniel#100Senior Male0:16:26 9.3 11664
MOORE Hayden#166Senior Male0:16:27 9.3 11765
GALBRAITH Dana#85740-49 Male0:16:27 9.3 11817
BOND Marcus#60Senior Male0:16:28 9.3 11966
FETTERPLACE Jonathon#149Senior Male0:16:29 9.3 12067
CANN Lara#401Senior Female0:16:30 9.3 12113
WOOD Anthony#124Senior Male0:16:31 9.3 12268
BYRNE Stephen#84640-49 Male0:16:31 9.3 12318
EASTWOOD Richard#73140-49 Male0:16:32 9.3 12419
STINEAR Tim#181Senior Male0:16:33 9.2 12569
MARTIN Darren#52Senior Male0:16:33 9.2 12670
OKE Tim#826Junior Male0:16:33 9.2 12714
HAYES Albert#81540-49 Male0:16:33 9.2 12820
STEELE Timothy#113Senior Male0:16:34 9.2 12971
FISHER Kevin#80840-49 Male0:16:34 9.2 13021
MINICHIELLO Ben#146Senior Male0:16:35 9.2 13172
INNES Chris#122Senior Male0:16:36 9.2 13273
RIED Craig#214Senior Male0:16:36 9.2 13374
BEHRSIN John#845Male 50+0:16:36 9.2 1345
FRASER Ben#125Senior Male0:16:37 9.2 13575
VAN NIEKERK Travis#54Senior Male0:16:38 9.2 13676
MORPHETT Alex#167Senior Male0:16:39 9.2 13777
ARTER Andrew#142Senior Male0:16:40 9.2 13878
WHYTE Sean#144Senior Male0:16:40 9.2 13979
CROCKETT Darren#80Senior Male0:16:41 9.2 14080
ROBERTSON Simon#130Senior Male0:16:42 9.2 14181
LYNCH Jo#465Senior Female0:16:42 9.2 14214
BROOKS Ty#18Senior Male0:16:43 9.2 14382
O'CONNELL Arnaliss#463Senior Female0:16:43 9.2 14415
GOSPER Elizabeth#31540-49 Female0:16:43 9.2 1451
ADKLAND Nathan#139Senior Male0:16:47 9.1 14683
MATTHEWS Aaron#138Senior Male0:16:49 9.1 14784
HARDINGHAM Leigh#99Senior Male0:16:49 9.1 14885
CRAMER Chris#132Senior Male0:16:50 9.1 14986
MORRISON Mark#71540-49 Male0:16:50 9.1 15022
BRADLEY David#175Senior Male0:16:51 9.1 15187
O'KEEFFE Louise#391Senior Female0:16:52 9.1 15216
YOUNG Shaun#243Senior Male0:16:53 9.1 15388
HOSKING William#164Senior Male0:16:53 9.1 15489
CROFT Tonia#461Junior Female0:16:53 9.1 1558
PARSON-JONES Jesse#91Senior Male0:16:54 9.1 15690
NICHOLSON James#191Senior Male0:16:54 9.1 15791
TENNANT Ross#73940-49 Male0:16:55 9 15823
BIBBY Anthony#98Senior Male0:16:56 9 15992
CAMPBELL Courtney#225Senior Male0:16:56 9 16093
DRISCOLL Ben#55Senior Male0:16:57 9 16194
MARSHALL Luke#148Senior Male0:16:57 9 16295
DEVERS Jared#51Senior Male0:16:58 9 16396
ALLEN Sarah#404Senior Female0:16:58 9 16417
HARRISON Daniel#40Senior Male0:17:00 9 16597
CLAVERIA Sabian#72Senior Male0:17:00 9 16698
PLANT Jacob#817Junior Male0:17:00 9 16715
BARNES John#778Male 50+0:17:01 9 1686
TYLER Mike#73240-49 Male0:17:02 9 16924
CROWE Jessica#450Senior Female0:17:03 9 17018
VALENA Rex#766Male 50+0:17:03 9 1717
DOCHERTY Josh#790Junior Male0:17:03 9 17216
LEA Micheal#96Senior Male0:17:04 9 17399
TOSH Elizabeth#333Junior Female0:17:04 9 1749
RINGROSE Paul#813Male 50+0:17:07 8.9 1758
IGLESIAS Philip#109Senior Male0:17:08 8.9 176100
TAYLOR Shelley#351Senior Female0:17:08 8.9 17719
LENNE Heath#154Senior Male0:17:09 8.9 178101
BATTERS Jason#62Senior Male0:17:11 8.9 179102
MANTEIT Alex#795Junior Male0:17:12 8.9 18017
STONE Nick#78Senior Male0:17:13 8.9 181103
SCHOLFIELD Nick#19Senior Male0:17:13 8.9 182104
COULSON Robert#75140-49 Male0:17:13 8.9 18325
MOUNTER Brent#38Senior Male0:17:14 8.9 184105
SMYTH Shannon#97Senior Male0:17:15 8.9 185106
VENNER Paul#86240-49 Male0:17:16 8.9 18626
COOK Earl#189Senior Male0:17:18 8.8 187107
RANSOM Callum#87Senior Male0:17:18 8.8 188108
O'CONNOR Wes#34Senior Male0:17:19 8.8 189109
RENDELL David#155Senior Male0:17:20 8.8 190110
ALDERSON Allan#832Male 50+0:17:20 8.8 1919
ILSLEY Ross#73340-49 Male0:17:20 8.8 19227
WILSON Jack#76Senior Male0:17:22 8.8 193111
MONAHAN Joel#88Senior Male0:17:23 8.8 194112
THOMPSON David#20Senior Male0:17:24 8.8 195113
MC FEE Andy#217Senior Male0:17:25 8.8 196114
NOLTON Mandy#365Senior Female0:17:25 8.8 19720
DAVIE Jasmine#472Senior Female0:17:27 8.8 19821
HAMMOND Kerry Anne#469Senior Female0:17:28 8.8 19922
MAIER David#86740-49 Male0:17:28 8.8 20028
ROBINSON Jamie#849Junior Male0:17:29 8.8 20118
BORN Daniel#821Junior Male0:17:32 8.7 20219
LEECH Mark#12Senior Male0:17:33 8.7 203115
DERRICKS Lou#42740-49 Female0:17:34 8.7 2042
BEHIRE Felicity#331Junior Female0:17:34 8.7 20510
WORNER Chris#179Senior Male0:17:37 8.7 206116
HILL Jarrod#172Senior Male0:17:38 8.7 207117
STEINICKE Angus#44Senior Male0:17:39 8.7 208118
SUNDERLAND Peter#79140-49 Male0:17:41 8.7 20929
PROITSIS Michael#70Senior Male0:17:43 8.6 210119
DAFF Geoff#773Male 50+0:17:47 8.6 21110
HAYNE Rodney#39Senior Male0:17:50 8.6 212120
JENKINS Greg#71940-49 Male0:17:50 8.6 21330
EARL Lachlan#237Senior Male0:17:51 8.6 214121
CARGILL Sam#238Senior Male0:17:51 8.6 215122
MORGAN Natailie#479Senior Female0:17:51 8.6 21623
BARKLEY Ryan#143Senior Male0:17:53 8.6 217123
TATTERSALL Emily#444Senior Female0:17:53 8.6 21824
LINFORD Rob#239Senior Male0:17:54 8.5 219124
KILMARTIN Matthew#1Senior Male0:17:54 8.5 220125
LEA Trevor#782Male 50+0:17:54 8.5 22111
URBAND Steven#207Senior Male0:17:55 8.5 222126
O'SULLIVAN Janine#343Senior Female0:17:56 8.5 22325
NICHOLSON Peter#848Male 50+0:17:57 8.5 22412
OCKWELL Kris#208Senior Male0:17:59 8.5 225127
KELLY Chris#30Senior Male0:18:00 8.5 226128
MANTEIT Mark#83840-49 Male0:18:01 8.5 22731
HEFFERNAN Mark#177Senior Male0:18:02 8.5 228129
JENKINS Mark#84740-49 Male0:18:02 8.5 22932
FLEISNER Paul#758Male 50+0:18:02 8.5 23013
COLE Nicholas#85840-49 Male0:18:03 8.5 23133
O'HEA Rory#861Junior Male0:18:03 8.5 23220
WICKS Robert#50Senior Male0:18:04 8.5 233130
DEWHURST Kim#342Senior Female0:18:04 8.5 23426
HAMILTON James#856Junior Male0:18:05 8.5 23521
HUNTER Rian#712Junior Male0:18:05 8.5 23622
MUNNINK Daniel#231Senior Male0:18:06 8.5 237131
DEVERS Ashley#42Senior Male0:18:06 8.5 238132
DURKIN Martin#764Male 50+0:18:06 8.5 23914
CROOKS Matthew#234Senior Male0:18:09 8.4 240133
WESTON Peter#13Senior Male0:18:09 8.4 241134
WALKER Paul#49Senior Male0:18:10 8.4 242135
KISS Shannyn#447Senior Female0:18:10 8.4 24327
GRIDLEY Nathan#36Senior Male0:18:11 8.4 244136
WHITE Fiona#378Senior Female0:18:13 8.4 24528
LEDDIN Peter#87040-49 Male0:18:13 8.4 24634
JANSZ Julie#46040-49 Female0:18:17 8.4 2473
KELLY David#48Senior Male0:18:18 8.4 248137
DRISCOLL Melanie#377Senior Female0:18:18 8.4 24929
SEXTON Andy#224Senior Male0:18:19 8.4 250138
GRAY Jordan#156Senior Male0:18:20 8.3 251139
FLACH Thomas#248Senior Male0:18:20 8.3 252140
VIRTUE Geoff#128Senior Male0:18:21 8.3 253141
PIROUET Nathan#222Senior Male0:18:22 8.3 254142
JOHNSTONE Shane#106Senior Male0:18:25 8.3 255143
FENNELL Peita#358Senior Female0:18:26 8.3 25630
IRWIN Alexa#471Junior Female0:18:26 8.3 25711
RANSOM Aaron#89Senior Male0:18:27 8.3 258144
HILL Jessica#438Senior Female0:18:29 8.3 25931
KEADY Richard#786Male 50+0:18:30 8.3 26015
CARTER Dean#761Male 50+0:18:31 8.3 26116
WINTE Paul#833Junior Male0:18:31 8.3 26223
OVER Travis#215Senior Male0:18:32 8.3 263145
MARKOPOULOS George#75Senior Male0:18:33 8.2 264146
THURGOOD Gary#228Senior Male0:18:35 8.2 265147
MC CURDY Richard#152Senior Male0:18:35 8.2 266148
STAFFORD Rachel#372Senior Female0:18:35 8.2 26732
MC ALLISTER Trent#708Junior Male0:18:35 8.2 26824
MACLAREN Lynne#47040-49 Female0:18:37 8.2 2694
LEVERSHA Lyn#316Female 50+0:18:39 8.2 2701
BURKE Richmond#210Senior Male0:18:40 8.2 271149
CHANDLER Mark#133Senior Male0:18:41 8.2 272150
SUCKLING Kane#32Senior Male0:18:42 8.2 273151
D'AQUINO Bianca#466Junior Female0:18:42 8.2 27412
VAN DER TANG Stephen#220Senior Male0:18:43 8.2 275152
WAKEFIELD Steven#11Senior Male0:18:43 8.2 276153
LEA Georgia#403Senior Female0:18:45 8.2 27733
PRYOR Brendon#255Senior Male0:18:46 8.2 278154
MULLER Rodney#209Senior Male0:18:46 8.2 279155
PEACOCK Ash#93Senior Male0:18:47 8.1 280156
DE KORT Luke#74Senior Male0:18:48 8.1 281157
HOWGATE Stacey#435Senior Female0:18:48 8.1 28234
SYMONS Tim#120Senior Male0:18:50 8.1 283158
O'SHANNESSY Peter#84140-49 Male0:18:50 8.1 28435
EDWARDS Joff#84340-49 Male0:18:52 8.1 28536
COLLIS Dan#242Senior Male0:18:53 8.1 286159
DWYER Ryan#866Junior Male0:18:55 8.1 28725
MANNING John#178Senior Male0:18:56 8.1 288160
CORLETT Spencer#45Senior Male0:18:56 8.1 289161
HOOPER Mick#757Male 50+0:18:57 8.1 29017
RINALDI Simon#211Senior Male0:18:58 8.1 291162
ANTHONY Michael#111Senior Male0:18:59 8.1 292163
GRUMMISCH Mark#165Senior Male0:18:59 8.1 293164
PORTER Michael#80240-49 Male0:18:59 8.1 29437
SHAUNDERS Prue#486Senior Female0:19:00 8.1 29535
CARTWRIGHT Chris#8Senior Male0:19:02 8 296165
MC NIECE Damien#195Senior Male0:19:04 8 297166
VERTIY Maggie#446Senior Female0:19:04 8 29836
WRIGHT Bruce#80540-49 Male0:19:05 8 29938
WILDES John#72740-49 Male0:19:05 8 30039
MATHEWS Robert#769Male 50+0:19:05 8 30118
CRAIG Mitch#206Senior Male0:19:06 8 302167
O'RYAN Mick#777Male 50+0:19:06 8 30319
MC CORMACK Neill#202Senior Male0:19:07 8 304168
ROBERTS Mark#72440-49 Male0:19:07 8 30540
VALENA Tony#56Senior Male0:19:09 8 306169
SHALDERS Mark#92Senior Male0:19:11 8 307170
RICHARDS Shaun#161Senior Male0:19:13 8 308171
MOSELEY Tessa#390Senior Female0:19:13 8 30937
HANLEY Peter#14Senior Male0:19:14 8 310172
GRAHAM Robyn#464Senior Female0:19:14 8 31138
WILLIAMSON Adam#28Senior Male0:19:15 7.9 312173
MERRINS Lucy#428Junior Female0:19:15 7.9 31313
HOPE Jacqueline#353Senior Female0:19:16 7.9 31439
SZEITLI Justine#419Junior Female0:19:17 7.9 31514
HARPER Karen#400Senior Female0:19:18 7.9 31640
CREAN Peter#772Male 50+0:19:19 7.9 31720
PENNY Cameron#73Senior Male0:19:21 7.9 318174
DEVINE Allison#30840-49 Female0:19:21 7.9 3195
MORRISON Kerry#411Female 50+0:19:23 7.9 3202
SCOTT Beth#449Junior Female0:19:24 7.9 32115
O'DONOHUE Mark#80140-49 Male0:19:24 7.9 32241
PERKIN Dale#16Senior Male0:19:28 7.9 323175
FITZGERALD Amy#380Senior Female0:19:28 7.9 32441
SEWELL Geoffrey#755Male 50+0:19:28 7.9 32521
JUNGFLEISCH Emma#389Senior Female0:19:29 7.9 32642
KEER Glenn#85140-49 Male0:19:29 7.9 32742
MADDOX Rachael#414Junior Female0:19:29 7.9 32816
ZERBE Stuart#53Senior Male0:19:30 7.8 329176
BODSWORTH Prue#420Senior Female0:19:31 7.8 33043
GILMOUR Dean#223Senior Male0:19:32 7.8 331177
BEER Kenn#22Senior Male0:19:32 7.8 332178
MORGAN Dallas#30140-49 Female0:19:32 7.8 3336
DAFF Jessica#421Senior Female0:19:32 7.8 33444
AMOS Danny#71Senior Male0:19:33 7.8 335179
YOUNG Andrew#77Senior Male0:19:33 7.8 336180
SUTHERLAND Michael#233Senior Male0:19:34 7.8 337181
DURKIN Sean#25Senior Male0:19:34 7.8 338182
IRVING Carole#477Senior Female0:19:34 7.8 33945
WILLIAMS Ian#72940-49 Male0:19:34 7.8 34043
MACAULAY Jess#360Senior Female0:19:35 7.8 34146
DUNNE Jerome#67Senior Male0:19:36 7.8 342183
ANDERSON Stewart#249Senior Male0:19:36 7.8 343184
HENDY Dale#83Senior Male0:19:37 7.8 344185
ANDERS Tully#828Junior Male0:19:40 7.8 34526
WILLIAMS Chris#81Senior Male0:19:43 7.8 346186
FERGIE Fleur#484Junior Female0:19:43 7.8 34717
BORN Tim#82240-49 Male0:19:43 7.8 34844
SMITH James#824Junior Male0:19:44 7.8 34927
ZIMMERMAN Kirrily#383Senior Female0:19:45 7.7 35047
LANGEVELD Peter#147Senior Male0:19:46 7.7 351187
GATTO Peter#827Male 50+0:19:47 7.7 35222
WATERSON David#203Senior Male0:19:48 7.7 353188
HARDY Ross#79Senior Male0:19:49 7.7 354189
LINSDELL-EDWARD Catherine#30540-49 Female0:19:51 7.7 3557
JORDAN-HILL Lisa#399Senior Female0:19:52 7.7 35648
DODD Jenny#30940-49 Female0:19:52 7.7 3578
TAMBURO Ailisha#481Senior Female0:19:53 7.7 35849
PEREZ Fabian#150Senior Male0:19:54 7.7 359190
CHAPMAN Rob#7Senior Male0:19:56 7.7 360191
JONES Mark#184Senior Male0:19:56 7.7 361192
HAMMOND Scott#41Senior Male0:19:57 7.7 362193
MC DONALD Hugh#151Senior Male0:19:58 7.7 363194
HOPKINS Barry#797Male 50+0:20:01 7.6 36423
MANNING Simon#78740-49 Male0:20:02 7.6 36545
FLETCHER Aimee#436Senior Female0:20:03 7.6 36650
LOBCZUIK Sebastian#236Senior Male0:20:05 7.6 367195
DALLINGER Brian#820Male 50+0:20:05 7.6 36824
DODDS Janine#452Senior Female0:20:06 7.6 36951
WILLIAMS Peter#80340-49 Male0:20:09 7.6 37046
MUIR Anthony#86940-49 Male0:20:10 7.6 37147
DIEDRICH Glenn#64Senior Male0:20:11 7.6 372196
SUMMERFIELD Ben#830Junior Male0:20:11 7.6 37328
REDDIE Luke#251Senior Male0:20:14 7.6 374197
HOOKE Andrew#227Senior Male0:20:16 7.5 375198
PEMBERTON Mark#212Senior Male0:20:18 7.5 376199
ONLEY Thomas#160Senior Male0:20:19 7.5 377200
CAPLE Anna#384Senior Female0:20:20 7.5 37852
TIPPING Joel#137Senior Male0:20:20 7.5 379201
LACEY Fleur#445Senior Female0:20:21 7.5 38053
GILLIES Bill#868Male 50+0:20:22 7.5 38125
HARRIS Emily#321Junior Female0:20:23 7.5 38218
COSTAGANNA Clara#368Senior Female0:20:24 7.5 38354
OSBALDERSTON Daniel#240Senior Male0:20:25 7.5 384202
HUNTER Jessi#332Junior Female0:20:26 7.5 38519
ANTONIOU Micheal#94Senior Male0:20:26 7.5 386203
FERRARO Julia#361Senior Female0:20:26 7.5 38755
RUSSELL Dale#74440-49 Male0:20:27 7.5 38848
HOLBROOK Renee#339Senior Female0:20:31 7.5 38956
LLOYD Greg#110Senior Male0:20:32 7.5 390204
CHASTON Peter#789Male 50+0:20:33 7.4 39126
REDDIE Michael#872Male 50+0:20:34 7.4 39227
HAMSTON Sam#709Junior Male0:20:34 7.4 39329
BARRITT Des#71640-49 Male0:20:35 7.4 39449
ELLIS Michael#767Male 50+0:20:35 7.4 39528
NICHOLSON Garry#835Male 50+0:20:38 7.4 39629
JOHNSTON Tessa#325Junior Female0:20:38 7.4 39720
LODGE Paul#84440-49 Male0:20:38 7.4 39850
TRAN Ignace#253Senior Male0:20:40 7.4 399205
FALLAW Jon#75040-49 Male0:20:42 7.4 40051
DEBELI Alexei#706Junior Male0:20:44 7.4 40130
ROBERTS Sarah#417Senior Female0:20:45 7.4 40257
CAMILLE Daven#825Junior Male0:20:45 7.4 40331
RAYMOND Jacqui#366Senior Female0:20:47 7.4 40458
ROBINSON Murray#72540-49 Male0:20:51 7.3 40552
DUNNE Dominic#69Senior Male0:20:53 7.3 406206
KENDALL Gary#73440-49 Male0:20:53 7.3 40753
RUSSO Danny#43Senior Male0:20:55 7.3 408207
QUINN Kevin#81040-49 Male0:20:55 7.3 40954
ADAMS Murray#765Male 50+0:20:58 7.3 41030
SAY Nick#117Senior Male0:20:59 7.3 411208
HARRINGTON Jacqui#443Senior Female0:21:00 7.3 41259
SPENCER Alyn#379Senior Female0:21:02 7.3 41360
HUGHES Fiona#408Senior Female0:21:05 7.3 41461
FISHER Simon#193Senior Male0:21:06 7.3 415209
BUGGY Emma#440Senior Female0:21:06 7.3 41662
GINNIVAN Maria#418Junior Female0:21:09 7.2 41721
STOKES Sarah#454Senior Female0:21:10 7.2 41863
JONES Vicki#31040-49 Female0:21:12 7.2 4199
CLANCY John#194Senior Male0:21:14 7.2 420210
TATT Georgie#476Senior Female0:21:14 7.2 42164
ASBURY Tamara#409Senior Female0:21:15 7.2 42265
EMERY Michael#72840-49 Male0:21:18 7.2 42355
GOODE Thomas#776Male 50+0:21:22 7.2 42431
GOOEY Janette#318Female 50+0:21:23 7.2 4253
WOOD Claire#402Senior Female0:21:24 7.1 42666
EISEN Zac#819Junior Male0:21:24 7.1 42732
JOHNSON Simon#15Senior Male0:21:25 7.1 428211
REYNOLDS Jannaha#349Senior Female0:21:25 7.1 42967
WILLIAMSON Scott#127Senior Male0:21:27 7.1 430212
DEATON Rick#162Senior Male0:21:28 7.1 431213
COMMERFORD Peter#865Male 50+0:21:32 7.1 43232
STEPHENS Ron#792Male 50+0:21:34 7.1 43333
MURRAY Aimee#424Senior Female0:21:34 7.1 43468
JACKSON Katherine#432Senior Female0:21:35 7.1 43569
STEELE Andrew#112Senior Male0:21:36 7.1 436214
ADKINS Susan#350Senior Female0:21:37 7.1 43770
DOLLING Toni#44140-49 Female0:21:39 7.1 43810
GUNDY Paul#190Senior Male0:21:42 7.1 439215
STELZER Hermann#788Male 50+0:21:43 7 44034
BLACKWELL Nicole#336Senior Female0:21:44 7 44171
HUNG Pui-Shan#474Senior Female0:21:45 7 44272
WALDER Charles#86040-49 Male0:21:47 7 44356
USATOFF Taissa#327Junior Female0:21:49 7 44422
SMITH Dennis#839Male 50+0:21:49 7 44535
BUTLER Gemma#395Senior Female0:21:49 7 44673
SCHLITZ Jacqui#370Senior Female0:21:51 7 44774
SEWELL Jessica#322Junior Female0:21:53 7 44823
REDMOND Sean#192Senior Male0:21:54 7 449216
ARMSTRONG Steven#73740-49 Male0:21:54 7 45057
CURRIE Brendan#72640-49 Male0:21:55 7 45158
NICHOLSON Ron#798Male 50+0:21:55 7 45236
HERBERT Michael#72140-49 Male0:22:02 6.9 45359
ANDERSON Lisa#30240-49 Female0:22:06 6.9 45411
GLENN Ian#756Male 50+0:22:07 6.9 45537
GARETTO Clinton#254Senior Male0:22:12 6.9 456217
COULSON Kim#407Senior Female0:22:19 6.9 45775
BARTLETT Doug#754Male 50+0:22:27 6.8 45838
HAMACHER Gisela#31140-49 Female0:22:28 6.8 45912
BENT Stephanie#341Senior Female0:22:35 6.8 46076
CRAIG Lucas#201Senior Male0:22:35 6.8 461218
O'CONNELL Michael#854Senior Male0:22:38 6.8 462219
PAUL Eric#842Male 50+0:22:38 6.8 46339
WRIGHT Melanie#462Junior Female0:22:38 6.8 46424
GOLDSTONE Mark#74140-49 Male0:22:43 6.7 46560
HOSKING Robert#853Male 50+0:22:44 6.7 46640
COULSON Shari#406Senior Female0:22:44 6.7 46777
ESNOUF John#762Male 50+0:22:45 6.7 46841
COOMBE Neil#784Male 50+0:22:45 6.7 46942
YEO Liz#371Senior Female0:22:49 6.7 47078
ALDER Kurt#136Senior Male0:22:50 6.7 471220
SUMMERFIELD Wayne#82940-49 Male0:22:51 6.7 47261
TALBOT Emma#376Senior Female0:22:53 6.7 47379
HARTMAN Jenelle#363Senior Female0:22:57 6.7 47480
CAPLE David#768Male 50+0:22:58 6.7 47543
WILLIAMS Anne-Marie#468Senior Female0:22:59 6.7 47681
CARSON Angie#373Senior Female0:23:00 6.7 47782
GLENN Catherine#423Senior Male0:23:01 6.6 478221
KEWMING Robyn#442Female 50+0:23:07 6.6 4794
CAMENZVLI Maria#41040-49 Female0:23:12 6.6 48013
MOULD Annie#405Senior Female0:23:19 6.6 48183
ZYLAN Lesia#364Senior Female0:23:21 6.6 48284
MEAGHER Kerryn#455Senior Female0:23:22 6.5 48385
DUDLEY Graeme#84Senior Male0:23:24 6.5 484222
WRIGHT Phil#852Male 50+0:23:26 6.5 48544
BRIDGES Jane#433Senior Female0:23:26 6.5 48686
FITZJOHN Mandy#388Senior Female0:23:34 6.5 48787
RYAN Cherie#392Senior Female0:23:37 6.5 48888
O'HARA Cameron#37Senior Male0:23:42 6.5 489223
MOTYER Stacey#434Senior Female0:23:45 6.4 49089
EMERY Rebekah#354Senior Female0:23:45 6.4 49190
GEE Ian#79640-49 Male0:23:48 6.4 49262
CHUA Ssu Yuan#387Senior Female0:23:49 6.4 49391
HOLLINS Jenny#429Senior Female0:23:57 6.4 49492
BOWTELL Kathryn#437Senior Female0:24:00 6.4 49593
RODRIQUEZ Kelly#375Senior Female0:24:03 6.4 49694
LENZ Christophe#812Male 50+0:24:03 6.4 49745
CHEONG Lil#356Senior Female0:24:09 6.3 49895
HAMSTON Tom#104Senior Male0:24:11 6.3 499224
PAUL Mal#760Male 50+0:24:27 6.3 50046
CRAW Tim#119Senior Male0:24:47 6.2 501225
HOUSE Brian#83740-49 Male0:24:51 6.2 50263
BURNHAM Robert#775Male 50+0:24:53 6.1 50347
LYNCH Nicholas#83640-49 Male0:25:05 6.1 50464
NIPROSKI Rosalind#478Female 50+0:25:10 6.1 5055
WOOD Sally#385Senior Female0:25:12 6.1 50696
COULSON Ian#763Male 50+0:25:12 6.1 50748
WALKER Christine#425Female 50+0:25:16 6.1 5086
CHAMBERS Ron#783Male 50+0:25:16 6.1 50949
PERKIN Rhianna#347Senior Female0:25:19 6 51097
ROOKS Nicola#348Senior Female0:25:22 6 51198
COLLINS Bruce#129Senior Male0:25:26 6 512226
DIETRICH Steven#196Senior Male0:25:27 6 513227
SORBY Jayden#834Junior Male0:25:30 6 51433
THORNHILL Chris#114Senior Male0:25:37 6 515228
STEWART Rowena#30340-49 Female0:25:38 6 51614
HAYNE Sue#317Female 50+0:25:44 5.9 5177
GIBSON Nikki#487Senior Female0:25:56 5.9 51899
PRIDHAM Alison#48840-49 Female0:25:58 5.9 51915
CAROLYN Kerry#453Senior Female0:25:59 5.9 520100
O'REILLY Kara Lee#456Senior Female0:26:00 5.9 521101
CONSIDINE Anne#30640-49 Female0:26:04 5.9 52216
BROWN Glenn#230Senior Male0:26:07 5.9 523229
HOOPER-CHILDS Nikki#42240-49 Female0:26:12 5.8 52417
COLE Ian#785Male 50+0:26:17 5.8 52550
SCHILLACI Michael#9Senior Male0:26:22 5.8 526230
LAWLER Toni#30440-49 Female0:26:24 5.8 52718
SUTHERLAND Norman#13140-49 Male0:26:27 5.8 52865
STELMACH Wanda#31240-49 Female0:26:33 5.8 52919
SCARLATA Helena#346Senior Female0:26:47 5.7 530102
FAZIO Elissa#345Senior Female0:26:47 5.7 531103
LUCAS Garry#779Male 50+0:26:53 5.7 53251
MCDONALD Chris#362Senior Female0:26:54 5.7 533104
YOUNG Bruce#840Male 50+0:27:21 5.6 53452
CLANCY Kendra#355Senior Female0:27:36 5.5 535105
BROWN Andrew#74240-49 Male0:27:40 5.5 53666
ROBINSON Caitlin#482Senior Female0:27:43 5.5 537106
URBANO Anna#483Senior Female0:27:43 5.5 538107
FALLAN Tim#82340-49 Male0:27:45 5.5 53967
TRAPPET Stephen#226Senior Male0:27:50 5.5 540231
JENKIN Steven#205Senior Male0:27:52 5.5 541232
NOBLE Deborah#338Senior Female0:28:02 5.5 542108
IRVING Scott#35Senior Male0:28:23 5.4 543233
HAMSTON Jordan#710Junior Male0:28:33 5.4 54434
PATERSON Debra#475Senior Male0:28:50 5.3 545234
SHOOBERT Mark#74340-49 Male0:29:10 5.2 54668
CONDON Robert#793Junior Male0:29:10 5.2 54735
KEMP Andrea#41240-49 Female0:29:20 5.2 54820
SUTHERLAND Jarrod#794Junior Male0:29:21 5.2 54936
HORROCKS Mark#814Male 50+0:29:22 5.2 55053
SNELL Coralie#48540-49 Female0:29:29 5.2 55121
FLOWER Melanie#426Senior Female0:29:37 5.2 552109
FLOOD Paul#87340-49 Male0:29:48 5.1 55369
KONTOGOURIS Earlene#320Female 50+0:30:28 5 5548
BROOMHALL Jenny#397Senior Female0:31:12 4.9 555110
WINDER Carrie-Ann#458Senior Female0:31:24 4.9 556111
WINDER Debbie#45740-49 Female0:31:24 4.9 55722
BOND Vivienne#31440-49 Female0:34:51 4.4 55823
BEWLEY Rikki#319Female 50+0:35:01 4.4 5599
TREVENA Melanie#382Senior Female0:35:40 4.3 560112
STUTELEY Katrina#381Senior Female0:35:40 4.3 561113